Time;durP1;ratioP1;P1;durP2;ratioP2;P2;SDS_P1;SDS_P2;PMS_P1;PMS_P2;Temp;Humidity;BMP_temperature;BMP_pressure;BME280_temperature;BME280_humidity;BME280_pressure;Samples;Min_cycle;Max_cycle;Signal;HPM_P1;HPM_P2
2022/06/13 00:00:40;;;;;;;2.05;1.27;;;;;;;;;;4989812;28;20219;-86
2022/06/13 00:03:08;;;;;;;3.30;1.65;;;;;;;;;;4977387;28;20228;-84
2022/06/13 00:05:36;;;;;;;2.53;2.22;;;;;;;;;;4976941;28;20259;-84
2022/06/13 00:08:04;;;;;;;2.00;1.42;;;;;;;;;;4977300;28;20196;-84
2022/06/13 00:10:32;;;;;;;4.47;3.00;;;;;;;;;;4976897;28;20232;-84
2022/06/13 00:13:01;;;;;;;1.67;1.58;;;;;;;;;;4976483;28;20314;-84
2022/06/13 00:15:29;;;;;;;1.65;1.17;;;;;;;;;;4976086;28;20232;-85
2022/06/13 00:17:56;;;;;;;1.90;1.23;;;;;;;;;;4975139;28;20232;-84
2022/06/13 00:20:24;;;;;;;2.55;1.45;;;;;;;;;;4976158;28;20224;-84
2022/06/13 00:22:51;;;;;;;2.38;1.30;;;;;;;;;;4975587;28;20228;-84
2022/06/13 00:25:19;;;;;;;2.35;1.60;;;;;;;;;;4976013;28;20243;-85
2022/06/13 00:27:46;;;;;;;2.25;1.23;;;;;;;;;;5010731;23;20242;-78
2022/06/13 00:30:15;;;;;;;2.90;1.20;;;;;;;;;;4993844;28;20326;-78
2022/06/13 00:32:43;;;;;;;3.38;1.63;;;;;;;;;;4993139;28;20286;-78
2022/06/13 00:35:11;;;;;;;5.03;1.70;;;;;;;;;;4993971;28;20239;-77
2022/06/13 00:37:38;;;;;;;1.92;1.23;;;;;;;;;;4994245;28;20310;-78
2022/06/13 00:40:08;;;;;;;2.22;1.40;;;;;;;;;;4994528;28;20239;-78
2022/06/13 00:42:35;;;;;;;1.45;1.35;;;;;;;;;;4993031;28;20200;-78
2022/06/13 00:45:20;;;;;;;1.52;1.23;;;;;;;;;;4993989;28;20206;-77
2022/06/13 00:47:50;;;;;;;1.90;1.40;;;;;;;;;;4993830;28;20771;-78
2022/06/13 00:50:24;;;;;;;2.55;1.40;;;;;;;;;;4994329;28;20589;-78
2022/06/13 00:52:56;;;;;;;2.20;1.50;;;;;;;;;;4993300;28;20286;-77
2022/06/13 00:55:29;;;;;;;1.80;1.55;;;;;;;;;;4994090;28;20241;-76
2022/06/13 00:57:57;;;;;;;2.10;1.75;;;;;;;;;;4994186;28;20318;-77
2022/06/13 01:00:27;;;;;;;2.45;1.55;;;;;;;;;;4993865;28;20231;-77
2022/06/13 01:02:55;;;;;;;1.63;1.48;;;;;;;;;;4993418;28;20196;-77
2022/06/13 01:05:26;;;;;;;1.65;1.55;;;;;;;;;;4993763;28;20772;-78
2022/06/13 01:07:56;;;;;;;2.67;1.60;;;;;;;;;;4994112;28;20287;-77
2022/06/13 01:13:11;;;;;;;4.50;1.67;;;;;;;;;;4993355;28;20297;-77
2022/06/13 01:16:08;;;;;;;1.55;1.45;;;;;;;;;;4993527;28;20251;-78
2022/06/13 01:18:58;;;;;;;2.08;1.85;;;;;;;;;;4993474;28;20759;-77
2022/06/13 01:21:37;;;;;;;2.00;1.33;;;;;;;;;;4993851;28;20286;-77
2022/06/13 01:24:55;;;;;;;2.20;1.73;;;;;;;;;;4993475;28;20679;-78
2022/06/13 01:28:19;;;;;;;2.15;1.40;;;;;;;;;;4993315;28;20314;-77
2022/06/13 01:31:11;;;;;;;4.18;1.40;;;;;;;;;;4965148;28;20642;-78
2022/06/13 01:33:48;;;;;;;2.30;1.20;;;;;;;;;;4993464;28;20314;-78
2022/06/13 01:36:31;;;;;;;3.20;1.83;;;;;;;;;;4993246;28;20223;-78
2022/06/13 01:39:12;;;;;;;2.50;1.65;;;;;;;;;;4993813;28;20245;-77
2022/06/13 01:41:49;;;;;;;1.88;1.60;;;;;;;;;;4993029;28;20668;-78
2022/06/13 01:44:23;;;;;;;1.63;1.52;;;;;;;;;;4993589;28;20295;-75
2022/06/13 01:46:57;;;;;;;2.20;1.95;;;;;;;;;;4993184;28;20277;-76
2022/06/13 01:49:30;;;;;;;2.38;1.48;;;;;;;;;;4993682;28;20728;-77
2022/06/13 01:52:01;;;;;;;4.13;2.25;;;;;;;;;;4993158;28;20214;-77
2022/06/13 01:54:34;;;;;;;2.17;1.65;;;;;;;;;;4993231;28;20277;-77
2022/06/13 01:57:14;;;;;;;2.28;1.50;;;;;;;;;;4993395;28;20250;-78
2022/06/13 01:59:50;;;;;;;2.08;1.52;;;;;;;;;;4974279;28;20242;-77
2022/06/13 02:02:26;;;;;;;2.75;1.60;;;;;;;;;;4973428;28;20286;-78
2022/06/13 02:04:59;;;;;;;2.80;1.63;;;;;;;;;;4973890;28;20254;-79
2022/06/13 02:07:31;;;;;;;2.22;1.27;;;;;;;;;;4974239;28;20235;-78
2022/06/13 02:10:05;;;;;;;6.40;2.10;;;;;;;;;;4973834;28;20688;-76
2022/06/13 02:12:36;;;;;;;3.08;1.80;;;;;;;;;;4973526;28;20299;-78
2022/06/13 02:15:09;;;;;;;2.50;1.80;;;;;;;;;;4974013;28;20596;-78
2022/06/13 02:17:44;;;;;;;1.63;1.35;;;;;;;;;;4973889;28;20315;-77
2022/06/13 02:20:19;;;;;;;5.32;2.28;;;;;;;;;;4974113;28;20238;-76
2022/06/13 02:22:50;;;;;;;3.33;1.80;;;;;;;;;;4973688;28;20208;-78
2022/06/13 02:25:23;;;;;;;1.65;1.50;;;;;;;;;;4973814;28;20307;-78
2022/06/13 02:27:57;;;;;;;3.90;1.70;;;;;;;;;;4978956;28;20327;-78
2022/06/13 02:30:30;;;;;;;5.90;2.00;;;;;;;;;;4993621;28;20293;-79
2022/06/13 02:33:04;;;;;;;3.22;1.90;;;;;;;;;;4992365;28;20291;-78
2022/06/13 02:35:36;;;;;;;2.17;1.75;;;;;;;;;;4993338;28;20259;-78
2022/06/13 02:38:07;;;;;;;4.75;2.00;;;;;;;;;;4992839;28;20323;-78
2022/06/13 02:40:38;;;;;;;2.80;2.38;;;;;;;;;;4995113;28;20208;-77
2022/06/13 02:43:11;;;;;;;4.75;2.05;;;;;;;;;;4996204;28;20291;-77
2022/06/13 02:45:43;;;;;;;3.80;2.42;;;;;;;;;;4996664;28;20199;-78
2022/06/13 02:48:18;;;;;;;3.85;1.70;;;;;;;;;;4996031;28;20294;-77
2022/06/13 02:50:53;;;;;;;3.83;1.92;;;;;;;;;;4996701;28;20295;-78
2022/06/13 02:53:26;;;;;;;2.85;1.90;;;;;;;;;;4995874;28;20287;-78
2022/06/13 02:56:06;;;;;;;8.95;1.95;;;;;;;;;;4996411;28;20282;-78
2022/06/13 02:58:38;;;;;;;5.20;1.70;;;;;;;;;;4996155;28;20222;-78
2022/06/13 03:01:11;;;;;;;2.55;1.45;;;;;;;;;;4996409;28;20602;-77
2022/06/13 03:03:48;;;;;;;3.03;2.50;;;;;;;;;;4995791;28;20723;-79
2022/06/13 03:06:25;;;;;;;3.78;1.90;;;;;;;;;;4996324;28;20305;-78
2022/06/13 03:09:03;;;;;;;4.38;1.80;;;;;;;;;;4995997;28;20245;-78
2022/06/13 03:11:45;;;;;;;3.60;2.15;;;;;;;;;;4996250;28;20291;-78
2022/06/13 03:14:31;;;;;;;6.38;2.58;;;;;;;;;;4996114;28;20290;-78
2022/06/13 03:17:03;;;;;;;4.25;2.00;;;;;;;;;;4996516;28;20274;-77
2022/06/13 03:19:38;;;;;;;4.63;2.42;;;;;;;;;;4996268;28;20294;-77
2022/06/13 03:22:09;;;;;;;2.70;2.03;;;;;;;;;;4995308;28;20719;-79
2022/06/13 03:24:46;;;;;;;3.25;1.88;;;;;;;;;;4995936;28;20204;-77
2022/06/13 03:27:19;;;;;;;3.05;2.00;;;;;;;;;;4995714;28;20604;-78
2022/06/13 03:29:51;;;;;;;3.03;2.03;;;;;;;;;;4995858;28;20672;-77
2022/06/13 03:32:23;;;;;;;2.90;2.20;;;;;;;;;;4995275;28;20280;-77
2022/06/13 03:34:54;;;;;;;3.58;2.40;;;;;;;;;;4995940;28;20224;-77
2022/06/13 03:37:26;;;;;;;4.43;1.80;;;;;;;;;;4995793;28;20314;-78
2022/06/13 03:40:01;;;;;;;2.78;1.98;;;;;;;;;;4996278;28;20195;-77
2022/06/13 03:42:35;;;;;;;4.10;1.85;;;;;;;;;;4995142;28;20477;-78
2022/06/13 03:45:09;;;;;;;3.13;2.10;;;;;;;;;;4995912;28;20632;-76
2022/06/13 03:47:40;;;;;;;5.32;2.50;;;;;;;;;;4995670;28;20302;-78
2022/06/13 03:50:16;;;;;;;3.00;1.80;;;;;;;;;;4995403;28;20239;-79
2022/06/13 03:52:49;;;;;;;2.55;1.80;;;;;;;;;;4995258;28;20239;-79
2022/06/13 03:55:21;;;;;;;3.35;1.88;;;;;;;;;;4996109;28;20312;-78
2022/06/13 04:00:33;;;;;;;2.97;1.85;;;;;;;;;;4993623;28;20203;-78
2022/06/13 04:03:01;;;;;;;2.10;1.52;;;;;;;;;;4995022;28;20204;-77
2022/06/13 04:05:36;;;;;;;4.57;1.70;;;;;;;;;;4996083;28;20265;-79
2022/06/13 04:08:04;;;;;;;3.13;2.10;;;;;;;;;;4995858;28;20227;-78
2022/06/13 04:10:40;;;;;;;2.45;1.70;;;;;;;;;;4995756;28;20210;-79
2022/06/13 04:13:25;;;;;;;3.28;1.88;;;;;;;;;;4995242;28;20211;-79
2022/06/13 04:16:09;;;;;;;2.75;1.73;;;;;;;;;;4995587;28;20238;-79
2022/06/13 04:18:53;;;;;;;2.25;1.65;;;;;;;;;;4995363;28;20743;-78
2022/06/13 04:21:33;;;;;;;6.50;2.17;;;;;;;;;;4995472;28;20211;-78
2022/06/13 04:24:16;;;;;;;4.80;1.95;;;;;;;;;;4995722;28;20200;-79
2022/06/13 04:26:49;;;;;;;4.72;1.75;;;;;;;;;;4996583;28;20298;-79
2022/06/13 04:29:24;;;;;;;2.38;1.90;;;;;;;;;;4996171;28;20207;-79
2022/06/13 04:31:56;;;;;;;3.05;2.13;;;;;;;;;;4995609;28;20234;-77
2022/06/13 04:34:36;;;;;;;4.53;1.63;;;;;;;;;;4996085;28;20208;-78
2022/06/13 04:37:06;;;;;;;5.30;2.00;;;;;;;;;;4995659;28;20228;-78
2022/06/13 04:39:36;;;;;;;2.58;1.90;;;;;;;;;;4995446;28;20307;-78
2022/06/13 04:42:06;;;;;;;3.80;1.88;;;;;;;;;;4995673;28;20294;-80
2022/06/13 04:44:34;;;;;;;2.10;1.45;;;;;;;;;;4996897;28;20279;-76
2022/06/13 04:47:03;;;;;;;3.67;1.95;;;;;;;;;;4996078;28;20242;-78
2022/06/13 04:49:35;;;;;;;2.63;1.80;;;;;;;;;;4997713;28;20204;-79
2022/06/13 04:52:09;;;;;;;1.70;1.60;;;;;;;;;;4994248;28;20310;-79
2022/06/13 04:54:41;;;;;;;3.55;2.05;;;;;;;;;;4995137;28;20294;-78
2022/06/13 04:57:09;;;;;;;2.75;1.70;;;;;;;;;;4995024;28;20408;-78
2022/06/13 04:59:37;;;;;;;2.55;2.35;;;;;;;;;;4974875;28;20290;-76
2022/06/13 05:02:05;;;;;;;2.72;1.67;;;;;;;;;;4974541;28;20208;-77
2022/06/13 05:04:34;;;;;;;3.95;2.10;;;;;;;;;;4975049;28;20299;-78
2022/06/13 05:07:12;;;;;;;3.40;2.17;;;;;;;;;;4973503;28;20252;-80
2022/06/13 05:09:44;;;;;;;2.33;1.52;;;;;;;;;;4975036;28;20241;-79
2022/06/13 05:12:20;;;;;;;7.13;2.47;;;;;;;;;;4974064;28;20310;-79
2022/06/13 05:14:50;;;;;;;1.92;1.70;;;;;;;;;;4973697;28;20586;-79
2022/06/13 05:17:54;;;;;;;2.83;2.38;;;;;;;;;;4974189;28;20242;-80
2022/06/13 05:20:32;;;;;;;4.75;1.95;;;;;;;;;;4974422;28;20747;-79
2022/06/13 05:23:19;;;;;;;4.35;2.28;;;;;;;;;;4973505;28;20214;-79
2022/06/13 05:25:48;;;;;;;2.83;2.53;;;;;;;;;;4974031;28;20473;-79
2022/06/13 05:28:19;;;;;;;2.53;1.70;;;;;;;;;;4982812;28;20671;-79
2022/06/13 05:30:50;;;;;;;3.15;2.08;;;;;;;;;;4993487;28;20255;-80
2022/06/13 05:33:21;;;;;;;4.38;2.65;;;;;;;;;;4992873;28;20291;-78
2022/06/13 05:35:52;;;;;;;5.30;2.70;;;;;;;;;;4993477;28;20236;-80
2022/06/13 05:38:27;;;;;;;3.28;1.90;;;;;;;;;;4993551;28;20242;-79
2022/06/13 05:40:54;;;;;;;3.50;1.95;;;;;;;;;;4993656;28;20290;-85
2022/06/13 05:43:22;;;;;;;4.05;1.95;;;;;;;;;;4993289;28;20298;-85
2022/06/13 05:45:49;;;;;;;3.17;2.15;;;;;;;;;;4993273;28;20246;-86
2022/06/13 05:48:20;;;;;;;2.65;1.75;;;;;;;;;;4995082;28;20239;-85
2022/06/13 05:50:48;;;;;;;2.40;1.52;;;;;;;;;;4995000;28;20220;-85
2022/06/13 05:53:19;;;;;;;3.45;1.65;;;;;;;;;;4995296;28;20219;-86
2022/06/13 05:55:50;;;;;;;4.30;1.50;;;;;;;;;;4995351;28;20638;-85
2022/06/13 05:58:23;;;;;;;4.40;1.95;;;;;;;;;;4995453;28;20203;-84
2022/06/13 06:00:54;;;;;;;2.63;1.67;;;;;;;;;;4995608;28;20638;-86
2022/06/13 06:03:22;;;;;;;3.53;1.92;;;;;;;;;;4994737;28;20291;-86
2022/06/13 06:05:49;;;;;;;2.47;1.58;;;;;;;;;;4995244;28;20299;-86
2022/06/13 06:08:20;;;;;;;2.90;1.83;;;;;;;;;;4996254;28;20290;-86
2022/06/13 06:10:54;;;;;;;5.40;2.40;;;;;;;;;;4995897;28;20295;-85
2022/06/13 06:13:22;;;;;;;2.83;1.42;;;;;;;;;;4996348;28;20202;-87
2022/06/13 06:15:51;;;;;;;1.98;1.58;;;;;;;;;;5000545;28;20258;-85
2022/06/13 06:18:21;;;;;;;2.78;2.00;;;;;;;;;;5000296;28;20233;-85
2022/06/13 06:20:49;;;;;;;2.85;1.73;;;;;;;;;;5000285;28;20233;-87
2022/06/13 06:23:16;;;;;;;2.08;1.88;;;;;;;;;;4999217;28;20254;-85
2022/06/13 06:25:47;;;;;;;2.47;1.77;;;;;;;;;;4999272;28;20635;-85
2022/06/13 06:28:19;;;;;;;2.45;2.10;;;;;;;;;;5017621;23;20277;-80
2022/06/13 06:30:47;;;;;;;2.28;1.38;;;;;;;;;;4996319;28;20286;-80
2022/06/13 06:33:14;;;;;;;3.55;1.90;;;;;;;;;;4995380;28;20752;-80
2022/06/13 06:35:42;;;;;;;3.83;1.80;;;;;;;;;;4996013;28;20291;-80
2022/06/13 06:38:10;;;;;;;12.23;2.33;;;;;;;;;;4995556;28;20322;-80
2022/06/13 06:40:38;;;;;;;3.85;1.73;;;;;;;;;;4996028;28;20204;-80
2022/06/13 06:43:06;;;;;;;2.15;1.48;;;;;;;;;;4999994;28;20818;-80
2022/06/13 06:45:35;;;;;;;2.83;1.63;;;;;;;;;;5003939;28;20303;-80
2022/06/13 06:48:04;;;;;;;2.55;1.35;;;;;;;;;;5005795;28;20314;-80
2022/06/13 06:50:34;;;;;;;3.30;2.58;;;;;;;;;;4999241;28;20278;-80
2022/06/13 06:53:02;;;;;;;3.95;2.10;;;;;;;;;;4995884;28;20287;-80
2022/06/13 07:01:06;;;;;;;3.05;1.80;;;;;;;;;;4997571;28;20282;-80
2022/06/13 07:03:33;;;;;;;2.00;1.90;;;;;;;;;;4996338;28;20295;-81
2022/06/13 07:06:01;;;;;;;4.97;2.40;;;;;;;;;;4995451;28;21224;-80
2022/06/13 07:08:29;;;;;;;4.85;2.05;;;;;;;;;;4996687;28;20315;-81
2022/06/13 07:11:53;;;;;;;4.50;2.35;;;;;;;;;;4996511;28;20643;-81
2022/06/13 07:13:44;;;;;;;3.47;1.88;;;;;;;;;;4996142;28;20214;-80
2022/06/13 07:16:13;;;;;;;4.28;2.22;;;;;;;;;;4996707;28;20235;-81
2022/06/13 07:18:41;;;;;;;2.78;2.35;;;;;;;;;;5003333;28;20318;-81
2022/06/13 07:21:09;;;;;;;3.92;2.25;;;;;;;;;;5005969;28;20672;-81
2022/06/13 07:23:36;;;;;;;3.58;2.55;;;;;;;;;;5001179;28;20672;-80
2022/06/13 07:26:04;;;;;;;5.57;1.85;;;;;;;;;;4997882;28;20230;-81
2022/06/13 07:28:32;;;;;;;2.55;2.22;;;;;;;;;;4998670;28;20294;-80
2022/06/13 07:31:00;;;;;;;3.63;2.28;;;;;;;;;;4997970;28;20671;-80
2022/06/13 07:33:28;;;;;;;2.80;2.60;;;;;;;;;;4997273;28;20290;-80
2022/06/13 07:35:56;;;;;;;4.35;3.15;;;;;;;;;;4998019;28;20295;-80
2022/06/13 07:38:23;;;;;;;3.97;2.53;;;;;;;;;;4997170;28;20325;-81
2022/06/13 07:40:53;;;;;;;4.90;2.08;;;;;;;;;;4997105;28;20294;-80
2022/06/13 07:43:30;;;;;;;3.28;2.65;;;;;;;;;;4996755;28;20593;-80
2022/06/13 07:45:59;;;;;;;1.98;1.30;;;;;;;;;;4997096;28;20208;-80
2022/06/13 07:48:29;;;;;;;14.10;3.05;;;;;;;;;;4996022;28;20216;-80
2022/06/13 07:50:56;;;;;;;3.58;1.65;;;;;;;;;;4996548;28;20636;-80
2022/06/13 07:53:24;;;;;;;3.45;1.52;;;;;;;;;;4996181;28;20302;-80
2022/06/13 07:55:52;;;;;;;3.63;1.45;;;;;;;;;;4996466;28;20199;-80
2022/06/13 07:58:28;;;;;;;1.70;1.35;;;;;;;;;;4996198;28;20326;-80
2022/06/13 08:00:55;;;;;;;1.70;1.60;;;;;;;;;;4996311;28;20294;-81
2022/06/13 08:03:25;;;;;;;2.13;1.48;;;;;;;;;;4994529;28;20294;-80
2022/06/13 08:05:54;;;;;;;1.90;1.80;;;;;;;;;;4994236;28;20683;-81
2022/06/13 08:08:22;;;;;;;2.58;1.65;;;;;;;;;;4995165;28;20708;-81
2022/06/13 08:10:51;;;;;;;2.70;1.38;;;;;;;;;;4995781;28;20295;-81
2022/06/13 08:13:20;;;;;;;4.13;1.58;;;;;;;;;;4994974;28;20295;-80
2022/06/13 08:15:49;;;;;;;3.20;1.63;;;;;;;;;;4995056;28;20286;-80
2022/06/13 08:18:17;;;;;;;2.83;1.35;;;;;;;;;;4994335;28;20318;-80
2022/06/13 08:20:45;;;;;;;2.83;1.30;;;;;;;;;;4994408;28;20646;-81
2022/06/13 08:23:16;;;;;;;1.30;1.02;;;;;;;;;;4993835;28;20295;-80
2022/06/13 08:25:43;;;;;;;1.73;1.20;;;;;;;;;;4994955;28;20204;-81
2022/06/13 08:28:13;;;;;;;1.67;1.15;;;;;;;;;;4994437;28;20263;-81
2022/06/13 08:30:44;;;;;;;4.40;1.73;;;;;;;;;;4994928;28;20652;-80
2022/06/13 08:33:12;;;;;;;3.28;1.55;;;;;;;;;;4993912;28;20743;-80
2022/06/13 08:35:40;;;;;;;1.58;1.30;;;;;;;;;;4994573;28;20203;-80
2022/06/13 08:38:08;;;;;;;1.55;1.45;;;;;;;;;;4993463;28;20318;-80
2022/06/13 08:40:44;;;;;;;1.20;1.10;;;;;;;;;;4994311;28;20286;-80
2022/06/13 08:43:40;;;;;;;2.95;1.60;;;;;;;;;;4993553;28;20774;-80
2022/06/13 08:46:15;;;;;;;2.97;1.70;;;;;;;;;;4994243;28;20238;-81
2022/06/13 08:48:45;;;;;;;2.00;1.75;;;;;;;;;;4993433;28;20671;-81
2022/06/13 08:51:15;;;;;;;1.85;1.65;;;;;;;;;;4993939;28;20211;-80
2022/06/13 08:53:52;;;;;;;5.07;2.15;;;;;;;;;;4993427;28;20290;-80
2022/06/13 08:56:23;;;;;;;3.13;1.80;;;;;;;;;;4993908;28;20286;-81
2022/06/13 08:58:55;;;;;;;3.58;2.30;;;;;;;;;;4993512;28;20326;-80
2022/06/13 09:01:29;;;;;;;3.50;1.75;;;;;;;;;;4993598;28;20294;-80
2022/06/13 09:04:01;;;;;;;2.67;2.05;;;;;;;;;;4993312;28;20200;-80
2022/06/13 09:06:34;;;;;;;3.40;1.98;;;;;;;;;;4992006;28;20310;-81
2022/06/13 09:09:09;;;;;;;2.13;1.60;;;;;;;;;;4993306;28;20580;-81
2022/06/13 09:11:44;;;;;;;2.42;2.00;;;;;;;;;;4993455;28;20342;-80
2022/06/13 09:14:17;;;;;;;2.95;1.80;;;;;;;;;;4994310;28;20298;-80
2022/06/13 09:16:51;;;;;;;2.55;1.70;;;;;;;;;;4994238;28;20231;-81
2022/06/13 09:19:23;;;;;;;2.10;1.90;;;;;;;;;;4993431;28;20318;-82
2022/06/13 09:21:54;;;;;;;5.75;2.75;;;;;;;;;;4992615;28;20213;-80
2022/06/13 09:24:27;;;;;;;3.58;2.05;;;;;;;;;;4993571;28;20495;-81
2022/06/13 09:27:01;;;;;;;2.25;1.63;;;;;;;;;;4992860;28;20285;-82
2022/06/13 09:29:33;;;;;;;2.20;1.50;;;;;;;;;;4993214;28;20390;-82
2022/06/13 09:32:06;;;;;;;2.75;1.80;;;;;;;;;;4992431;28;20571;-81
2022/06/13 09:34:39;;;;;;;1.75;1.58;;;;;;;;;;4992829;28;20699;-82
2022/06/13 09:37:10;;;;;;;2.22;1.52;;;;;;;;;;4993198;28;20314;-82
2022/06/13 09:39:38;;;;;;;2.47;1.58;;;;;;;;;;4993716;28;20282;-81
2022/06/13 09:42:26;;;;;;;3.80;2.03;;;;;;;;;;4992644;28;20616;-79
2022/06/13 09:45:31;;;;;;;4.85;2.03;;;;;;;;;;4993303;28;20278;-79
2022/06/13 09:48:08;;;;;;;2.03;1.38;;;;;;;;;;4992469;28;20227;-79
2022/06/13 09:50:45;;;;;;;1.58;1.40;;;;;;;;;;4992903;28;20294;-80
2022/06/13 09:53:19;;;;;;;3.17;1.98;;;;;;;;;;4992808;28;20210;-82
2022/06/13 09:55:52;;;;;;;2.50;1.58;;;;;;;;;;4992968;28;20203;-82
2022/06/13 09:58:44;;;;;;;2.55;1.65;;;;;;;;;;4992757;28;20231;-82
2022/06/13 10:01:18;;;;;;;1.80;1.50;;;;;;;;;;4993013;28;20661;-83
2022/06/13 10:03:55;;;;;;;4.35;1.92;;;;;;;;;;4992148;28;20293;-82
2022/06/13 10:06:29;;;;;;;2.22;1.63;;;;;;;;;;4991703;28;20207;-81
2022/06/13 10:09:21;;;;;;;2.40;2.20;;;;;;;;;;4992894;28;20246;-81
2022/06/13 10:11:54;;;;;;;1.92;1.45;;;;;;;;;;4992271;28;20299;-81
2022/06/13 10:14:47;;;;;;;4.07;1.67;;;;;;;;;;4993023;28;20298;-80
2022/06/13 10:17:25;;;;;;;1.55;1.45;;;;;;;;;;4992782;28;20224;-80
2022/06/13 10:20:01;;;;;;;1.92;1.50;;;;;;;;;;4992741;28;20237;-80
2022/06/13 10:22:37;;;;;;;2.35;2.15;;;;;;;;;;4992034;28;20295;-80
2022/06/13 10:25:18;;;;;;;6.80;2.25;;;;;;;;;;4992484;28;20213;-80
2022/06/13 10:27:57;;;;;;;2.30;1.73;;;;;;;;;;4992282;28;20322;-80
2022/06/13 10:30:42;;;;;;;1.92;1.60;;;;;;;;;;4992508;28;20290;-80
2022/06/13 10:33:24;;;;;;;3.03;2.13;;;;;;;;;;4991669;28;20295;-80
2022/06/13 10:35:56;;;;;;;1.80;1.50;;;;;;;;;;4992832;28;20200;-80
2022/06/13 10:38:56;;;;;;;1.63;1.50;;;;;;;;;;4992530;28;20323;-80
2022/06/13 10:41:25;;;;;;;1.65;1.55;;;;;;;;;;4992557;28;20644;-80
2022/06/13 10:43:54;;;;;;;4.40;1.70;;;;;;;;;;4991274;28;20204;-81
2022/06/13 10:46:23;;;;;;;4.25;1.75;;;;;;;;;;4992533;28;20234;-80
2022/06/13 10:48:55;;;;;;;2.20;1.30;;;;;;;;;;4991622;28;20643;-80
2022/06/13 10:51:23;;;;;;;3.25;1.55;;;;;;;;;;4992657;28;20298;-81
2022/06/13 10:53:56;;;;;;;2.22;1.67;;;;;;;;;;4991617;28;20233;-81
2022/06/13 10:56:27;;;;;;;3.70;1.83;;;;;;;;;;4992186;28;20204;-80
2022/06/13 10:58:59;;;;;;;1.67;1.40;;;;;;;;;;4992059;28;20242;-80
2022/06/13 11:01:30;;;;;;;2.20;1.20;;;;;;;;;;4993311;28;20628;-81
2022/06/13 11:04:05;;;;;;;2.28;1.42;;;;;;;;;;4995445;28;20290;-82
2022/06/13 11:06:41;;;;;;;2.47;1.60;;;;;;;;;;4994686;28;20227;-81
2022/06/13 11:09:32;;;;;;;3.13;1.77;;;;;;;;;;4995483;28;20195;-81
2022/06/13 11:12:02;;;;;;;3.55;1.38;;;;;;;;;;4995053;28;20286;-81
2022/06/13 11:22:37;;;;;;;1.10;1.10;;;;;;;;;;4994746;28;20336;-81
2022/06/13 11:23:02;;;;;;;2.45;1.50;;;;;;;;;;4997459;28;20209;-81
2022/06/13 11:25:33;;;;;;;3.67;1.50;;;;;;;;;;4999122;28;20204;-81
2022/06/13 11:28:08;;;;;;;0.90;0.90;;;;;;;;;;4998232;28;20274;-81
2022/06/13 11:30:46;;;;;;;1.42;1.30;;;;;;;;;;4997494;28;20282;-81
2022/06/13 11:33:29;;;;;;;2.15;1.95;;;;;;;;;;4996748;28;20594;-81
2022/06/13 11:35:59;;;;;;;1.77;1.30;;;;;;;;;;4997440;28;20306;-81
2022/06/13 11:38:30;;;;;;;2.63;1.50;;;;;;;;;;4998094;28;20247;-81
2022/06/13 11:41:21;;;;;;;2.38;1.60;;;;;;;;;;4997230;28;20314;-81
2022/06/13 11:43:54;;;;;;;3.20;1.85;;;;;;;;;;4996529;28;20298;-81
2022/06/13 11:46:40;;;;;;;2.72;2.45;;;;;;;;;;4996466;28;20208;-80
2022/06/13 11:49:32;;;;;;;3.65;2.28;;;;;;;;;;4996467;28;20295;-80
2022/06/13 11:55:19;;;;;;;2.80;1.55;;;;;;;;;;5001585;28;20199;-80
2022/06/13 11:57:53;;;;;;;2.90;1.60;;;;;;;;;;5013446;28;20303;-80
2022/06/13 12:00:36;;;;;;;1.58;1.30;;;;;;;;;;5014468;28;20223;-80
2022/06/13 12:03:17;;;;;;;1.73;1.33;;;;;;;;;;5009845;28;20649;-80
2022/06/13 12:05:48;;;;;;;1.85;1.63;;;;;;;;;;4998674;28;20295;-81
2022/06/13 12:08:28;;;;;;;1.67;1.58;;;;;;;;;;4999464;28;20219;-81
2022/06/13 12:11:20;;;;;;;1.40;1.30;;;;;;;;;;4999691;28;20203;-81
2022/06/13 12:13:49;;;;;;;1.55;1.17;;;;;;;;;;4997861;28;20699;-81
2022/06/13 12:16:33;;;;;;;1.67;1.48;;;;;;;;;;4997782;28;20255;-81
2022/06/13 12:19:20;;;;;;;1.60;1.50;;;;;;;;;;4998019;28;20200;-82
2022/06/13 12:21:55;;;;;;;2.38;1.67;;;;;;;;;;4997612;28;20227;-81
2022/06/13 12:24:27;;;;;;;2.10;1.60;;;;;;;;;;4998078;28;20266;-82
2022/06/13 12:27:02;;;;;;;1.83;1.73;;;;;;;;;;4998428;28;20231;-81
2022/06/13 12:29:43;;;;;;;1.55;1.45;;;;;;;;;;4998088;28;20638;-81
2022/06/13 12:32:17;;;;;;;2.70;1.42;;;;;;;;;;4996793;28;20664;-81
2022/06/13 12:35:01;;;;;;;3.65;2.40;;;;;;;;;;4997206;28;20253;-80
2022/06/13 12:37:42;;;;;;;2.70;2.50;;;;;;;;;;4997526;28;20319;-81
2022/06/13 12:40:21;;;;;;;3.85;2.15;;;;;;;;;;4997250;28;20223;-81
2022/06/13 12:43:19;;;;;;;1.60;1.50;;;;;;;;;;4996273;28;20290;-81
2022/06/13 12:46:28;;;;;;;2.33;1.77;;;;;;;;;;4996859;28;20616;-81
2022/06/13 12:49:07;;;;;;;3.30;2.35;;;;;;;;;;4954496;29;20219;-81
2022/06/13 12:51:42;;;;;;;3.65;2.35;;;;;;;;;;4992719;28;20210;-81
2022/06/13 12:54:49;;;;;;;2.40;2.15;;;;;;;;;;4996620;28;20298;-80
2022/06/13 12:57:38;;;;;;;3.03;2.53;;;;;;;;;;4996383;28;20661;-81
2022/06/13 13:00:15;;;;;;;4.10;2.15;;;;;;;;;;4996250;28;20223;-82
2022/06/13 13:03:19;;;;;;;2.30;2.10;;;;;;;;;;4995456;28;20290;-82
2022/06/13 13:05:57;;;;;;;4.03;2.63;;;;;;;;;;4995192;28;20294;-81
2022/06/13 13:08:41;;;;;;;2.08;1.83;;;;;;;;;;4995801;28;20738;-81
2022/06/13 13:11:28;;;;;;;3.03;1.70;;;;;;;;;;4996242;28;20222;-81
2022/06/13 13:14:00;;;;;;;2.38;2.17;;;;;;;;;;4995223;28;20279;-81
2022/06/13 13:16:37;;;;;;;2.40;2.00;;;;;;;;;;4994189;28;20315;-81
2022/06/13 13:19:34;;;;;;;2.38;1.80;;;;;;;;;;4994339;28;20257;-81
2022/06/13 13:22:07;;;;;;;2.08;1.67;;;;;;;;;;4983609;28;20270;-81
2022/06/13 13:24:54;;;;;;;5.25;2.22;;;;;;;;;;4994218;28;20290;-80
2022/06/13 13:27:24;;;;;;;2.55;1.60;;;;;;;;;;4994061;28;20734;-80
2022/06/13 13:30:04;;;;;;;3.85;2.13;;;;;;;;;;4993871;28;20676;-80
2022/06/13 13:32:41;;;;;;;3.63;1.67;;;;;;;;;;4993412;28;20234;-81
2022/06/13 13:35:27;;;;;;;1.70;1.50;;;;;;;;;;4993841;28;20735;-80
2022/06/13 13:38:01;;;;;;;2.15;1.70;;;;;;;;;;4993527;28;20262;-80
2022/06/13 13:40:41;;;;;;;1.63;1.50;;;;;;;;;;4993342;28;20737;-80
2022/06/13 13:43:20;;;;;;;4.78;2.47;;;;;;;;;;4992879;28;20234;-80
2022/06/13 13:45:50;;;;;;;3.22;1.92;;;;;;;;;;4993319;28;20668;-81
2022/06/13 13:48:27;;;;;;;6.40;1.85;;;;;;;;;;4992723;28;20314;-80
2022/06/13 13:51:01;;;;;;;2.35;1.90;;;;;;;;;;4993077;28;20203;-80
2022/06/13 13:53:35;;;;;;;1.92;1.80;;;;;;;;;;4992570;28;20262;-81
2022/06/13 13:56:12;;;;;;;2.95;2.25;;;;;;;;;;4993012;28;20294;-80
2022/06/13 13:58:44;;;;;;;2.95;1.60;;;;;;;;;;4993058;28;20238;-81
2022/06/13 14:01:42;;;;;;;3.10;1.80;;;;;;;;;;4992909;28;20223;-80
2022/06/13 14:04:51;;;;;;;4.40;1.90;;;;;;;;;;4988158;28;20375;-80
2022/06/13 14:07:53;;;;;;;2.45;1.50;;;;;;;;;;4978243;28;20348;-80
2022/06/13 14:10:23;;;;;;;3.50;1.40;;;;;;;;;;4992866;28;20286;-80
2022/06/13 14:13:07;;;;;;;1.55;1.45;;;;;;;;;;4992609;28;20298;-81
2022/06/13 14:15:58;;;;;;;2.25;1.38;;;;;;;;;;4991887;28;20199;-81
2022/06/13 14:18:29;;;;;;;2.63;1.95;;;;;;;;;;4992909;28;20318;-80
2022/06/13 14:20:57;;;;;;;3.17;1.48;;;;;;;;;;4993217;28;20227;-81
2022/06/13 14:23:35;;;;;;;2.22;1.20;;;;;;;;;;4992369;28;20203;-81
2022/06/13 14:26:03;;;;;;;2.33;1.38;;;;;;;;;;4993363;28;20294;-80
2022/06/13 14:28:48;;;;;;;2.38;1.55;;;;;;;;;;4992821;28;20215;-81
2022/06/13 14:31:17;;;;;;;2.22;1.23;;;;;;;;;;4992893;28;20595;-81
2022/06/13 14:37:13;;;;;;;1.80;1.48;;;;;;;;;;4994945;28;20230;-80
2022/06/13 14:39:54;;;;;;;1.70;1.50;;;;;;;;;;4996178;28;20203;-80
2022/06/13 14:42:45;;;;;;;3.53;1.45;;;;;;;;;;4995819;28;20223;-79
2022/06/13 14:45:16;;;;;;;1.75;1.65;;;;;;;;;;4996338;28;20203;-80
2022/06/13 14:48:15;;;;;;;2.13;1.33;;;;;;;;;;4995108;28;20255;-80
2022/06/13 14:50:48;;;;;;;2.05;1.80;;;;;;;;;;4996359;28;20204;-80
2022/06/13 14:53:46;;;;;;;1.52;1.30;;;;;;;;;;4995429;28;20286;-80
2022/06/13 14:56:50;;;;;;;1.50;1.40;;;;;;;;;;4995982;28;20290;-81
2022/06/13 14:59:19;;;;;;;2.67;1.90;;;;;;;;;;4995689;28;20290;-80
2022/06/13 15:02:25;;;;;;;2.08;1.40;;;;;;;;;;4995293;28;20232;-79
2022/06/13 15:05:05;;;;;;;1.33;1.20;;;;;;;;;;4996159;28;20199;-81
2022/06/13 15:07:48;;;;;;;1.75;1.30;;;;;;;;;;4994707;28;20708;-80
2022/06/13 15:10:20;;;;;;;0.93;0.90;;;;;;;;;;4996348;28;20287;-80
2022/06/13 15:12:48;;;;;;;1.52;1.20;;;;;;;;;;4995685;28;20583;-80
2022/06/13 15:15:24;;;;;;;1.42;1.33;;;;;;;;;;4996235;28;20589;-80
2022/06/13 15:17:55;;;;;;;1.05;1.00;;;;;;;;;;5002804;28;20246;-80
2022/06/13 15:20:27;;;;;;;3.83;1.70;;;;;;;;;;5001933;28;20200;-80
2022/06/13 15:22:59;;;;;;;2.08;1.00;;;;;;;;;;4998377;28;20286;-80
2022/06/13 15:25:43;;;;;;;0.93;0.93;;;;;;;;;;4997568;28;20661;-82
2022/06/13 15:28:13;;;;;;;1.75;1.00;;;;;;;;;;4997063;28;20239;-81
2022/06/13 15:30:42;;;;;;;1.00;1.00;;;;;;;;;;4998527;28;20227;-81
2022/06/13 15:33:18;;;;;;;1.40;1.05;;;;;;;;;;4996935;28;20277;-81
2022/06/13 15:35:53;;;;;;;1.02;1.02;;;;;;;;;;4998415;28;20204;-81
2022/06/13 15:38:24;;;;;;;0.88;0.88;;;;;;;;;;4997981;28;20327;-81
2022/06/13 15:40:56;;;;;;;1.17;1.08;;;;;;;;;;4996836;28;20204;-81
2022/06/13 15:43:37;;;;;;;1.27;1.00;;;;;;;;;;4996416;28;20266;-82
2022/06/13 15:46:06;;;;;;;2.28;1.10;;;;;;;;;;4997048;28;20714;-81
2022/06/13 15:48:34;;;;;;;1.23;1.10;;;;;;;;;;4997290;28;20248;-82
2022/06/13 15:51:20;;;;;;;1.00;1.00;;;;;;;;;;4996316;28;20203;-81
2022/06/13 15:53:49;;;;;;;1.15;0.98;;;;;;;;;;4996307;28;20290;-81